Time;durP1;ratioP1;P1;durP2;ratioP2;P2;SDS_P1;SDS_P2;PMS_P1;PMS_P2;Temp;Humidity;BMP_temperature;BMP_pressure;BME280_temperature;BME280_humidity;BME280_pressure;Samples;Min_cycle;Max_cycle;Signal;HPM_P1;HPM_P2
2024/03/21 00:00:52;;;;;;;8.20;4.93;;;13.90;99.90;;;;;;5013025;28;20177;-76
2024/03/21 00:03:18;;;;;;;9.63;5.30;;;13.80;99.90;;;;;;5030638;28;20265;-76
2024/03/21 00:05:44;;;;;;;8.57;5.77;;;13.80;99.90;;;;;;5030693;28;20184;-76
2024/03/21 00:08:09;;;;;;;6.10;4.70;;;13.70;99.90;;;;;;5030198;28;20610;-75
2024/03/21 00:10:35;;;;;;;7.03;5.43;;;13.70;99.90;;;;;;5030443;28;20704;-76
2024/03/21 00:13:01;;;;;;;6.43;5.30;;;13.70;99.90;;;;;;5012137;28;20288;-76
2024/03/21 00:15:26;;;;;;;11.23;5.60;;;13.60;99.90;;;;;;5030802;28;20184;-75
2024/03/21 00:17:52;;;;;;;8.27;5.50;;;13.60;99.90;;;;;;5013039;28;20330;-76
2024/03/21 00:20:19;;;;;;;6.70;5.20;;;13.60;99.90;;;;;;5032085;28;20724;-76
2024/03/21 00:22:46;;;;;;;8.93;6.05;;;13.50;99.90;;;;;;5032580;28;20310;-76
2024/03/21 00:25:17;;;;;;;6.80;5.00;;;13.50;99.90;;;;;;5032201;28;20698;-76
2024/03/21 00:27:45;;;;;;;6.10;5.50;;;13.50;99.90;;;;;;5032150;28;20208;-76
2024/03/21 00:30:11;;;;;;;8.13;5.10;;;13.40;99.90;;;;;;5050455;28;20169;-75
2024/03/21 00:32:37;;;;;;;7.32;5.15;;;13.40;99.90;;;;;;5000040;28;20818;-76
2024/03/21 00:35:03;;;;;;;8.20;5.10;;;13.40;99.90;;;;;;5051887;28;20260;-76
2024/03/21 00:37:29;;;;;;;6.73;5.97;;;13.30;99.90;;;;;;5032446;28;20702;-76
2024/03/21 00:39:55;;;;;;;8.80;5.90;;;13.30;99.90;;;;;;5008399;28;20636;-76
2024/03/21 00:42:21;;;;;;;7.67;5.40;;;13.30;99.90;;;;;;5043576;28;20661;-76
2024/03/21 00:44:47;;;;;;;7.53;5.25;;;13.20;99.90;;;;;;5042030;28;20182;-75
2024/03/21 00:47:13;;;;;;;6.93;4.80;;;13.20;99.90;;;;;;5028748;28;20216;-75
2024/03/21 00:49:39;;;;;;;8.80;5.80;;;13.20;99.90;;;;;;5029254;28;20177;-76
2024/03/21 00:52:07;;;;;;;6.57;5.03;;;13.20;99.90;;;;;;5029140;28;20251;-76
2024/03/21 00:54:33;;;;;;;6.80;5.57;;;13.20;99.90;;;;;;5030098;28;20181;-76
2024/03/21 00:56:59;;;;;;;8.55;5.57;;;13.10;99.90;;;;;;5030712;28;20676;-76
2024/03/21 00:59:25;;;;;;;6.60;4.60;;;13.10;99.90;;;;;;5029729;28;20949;-76
2024/03/21 01:01:51;;;;;;;8.10;5.60;;;13.10;99.90;;;;;;5028986;28;20181;-76
2024/03/21 01:04:18;;;;;;;6.27;5.40;;;13.00;99.90;;;;;;5030402;28;20220;-76
2024/03/21 01:06:46;;;;;;;7.53;5.93;;;13.00;99.90;;;;;;5034022;28;20642;-76
2024/03/21 01:09:12;;;;;;;7.72;5.35;;;13.00;99.90;;;;;;5035995;28;20181;-76
2024/03/21 01:11:39;;;;;;;7.80;5.33;;;13.00;99.90;;;;;;5033339;28;20238;-76
2024/03/21 01:14:05;;;;;;;10.95;6.20;;;13.00;99.90;;;;;;5042353;28;20181;-77
2024/03/21 01:16:32;;;;;;;6.40;5.53;;;12.90;99.90;;;;;;5019403;28;20230;-78
2024/03/21 01:18:58;;;;;;;10.23;6.10;;;12.90;99.90;;;;;;5045299;28;20226;-77
2024/03/21 01:21:26;;;;;;;10.63;5.30;;;12.90;99.90;;;;;;5025304;28;20710;-77
2024/03/21 01:23:53;;;;;;;6.45;5.55;;;13.00;99.90;;;;;;5023263;28;20603;-76
2024/03/21 01:26:19;;;;;;;7.55;6.32;;;12.90;99.90;;;;;;5018040;28;20210;-77
2024/03/21 01:28:45;;;;;;;9.70;6.60;;;12.90;99.90;;;;;;5035541;28;20849;-76
2024/03/21 01:31:20;;;;;;;11.13;6.13;;;13.00;99.90;;;;;;5018195;28;20181;-77
2024/03/21 01:33:48;;;;;;;11.35;6.60;;;12.90;99.90;;;;;;5040981;28;20177;-76
2024/03/21 01:36:14;;;;;;;8.98;6.75;;;12.90;99.90;;;;;;5015581;28;20169;-76
2024/03/21 01:38:40;;;;;;;9.43;6.77;;;12.90;99.90;;;;;;5038530;28;20543;-75
2024/03/21 01:41:06;;;;;;;10.47;6.57;;;12.90;99.90;;;;;;5027427;28;20204;-76
2024/03/21 01:43:32;;;;;;;7.07;5.30;;;12.90;99.90;;;;;;5052540;28;20583;-76
2024/03/21 01:46:17;;;;;;;9.73;6.82;;;12.90;99.90;;;;;;5053197;28;20637;-76
2024/03/21 01:48:47;;;;;;;8.73;6.35;;;12.90;99.90;;;;;;5040512;28;20670;-76
2024/03/21 01:51:21;;;;;;;7.63;6.40;;;12.90;99.90;;;;;;5035257;28;20188;-76
2024/03/21 01:53:49;;;;;;;10.13;5.65;;;12.90;99.90;;;;;;5035783;28;20290;-76
2024/03/21 01:56:15;;;;;;;9.38;6.20;;;12.80;99.90;;;;;;5028165;28;20177;-76
2024/03/21 01:58:41;;;;;;;9.57;6.47;;;12.80;99.90;;;;;;5024684;28;20707;-76
2024/03/21 02:01:27;;;;;;;9.60;7.15;;;12.80;99.90;;;;;;5034826;28;20598;-76
2024/03/21 02:03:55;;;;;;;7.10;6.35;;;12.80;99.90;;;;;;5025006;28;20220;-76
2024/03/21 02:06:26;;;;;;;7.60;6.78;;;12.80;99.90;;;;;;5045441;28;20667;-77
2024/03/21 02:08:53;;;;;;;10.43;7.10;;;12.80;99.90;;;;;;5044570;28;20312;-76
2024/03/21 02:11:22;;;;;;;7.63;6.50;;;12.80;99.90;;;;;;5027582;28;20256;-76
2024/03/21 02:13:52;;;;;;;7.90;7.10;;;12.80;99.90;;;;;;5050536;28;20189;-76
2024/03/21 02:16:21;;;;;;;9.50;7.72;;;12.80;99.90;;;;;;5033442;28;20177;-75
2024/03/21 02:18:48;;;;;;;10.38;7.80;;;12.80;99.90;;;;;;5052879;28;20204;-75
2024/03/21 02:24:08;;;;;;;11.55;6.53;;;12.80;99.90;;;;;;5006590;28;20202;-75
2024/03/21 02:26:34;;;;;;;7.87;6.00;;;12.80;99.90;;;;;;5027264;28;20686;-75
2024/03/21 02:29:00;;;;;;;9.33;6.80;;;12.70;99.90;;;;;;5037509;28;20588;-75
2024/03/21 02:31:25;;;;;;;9.57;7.10;;;12.80;99.90;;;;;;5053279;28;20177;-75
2024/03/21 02:33:51;;;;;;;11.20;8.30;;;12.80;99.90;;;;;;5044983;28;20180;-75
2024/03/21 02:36:17;;;;;;;8.03;6.20;;;12.80;99.90;;;;;;5045532;28;20695;-75
2024/03/21 02:38:43;;;;;;;9.33;6.63;;;12.80;99.90;;;;;;5052724;28;20609;-76
2024/03/21 02:41:08;;;;;;;8.60;7.00;;;12.80;99.90;;;;;;5035115;28;20614;-75
2024/03/21 02:43:34;;;;;;;10.40;6.63;;;12.80;99.90;;;;;;5045344;28;20199;-75
2024/03/21 02:46:00;;;;;;;10.30;6.03;;;12.80;99.90;;;;;;5034457;28;20583;-75
2024/03/21 02:48:28;;;;;;;8.65;6.85;;;12.80;99.90;;;;;;5007591;28;20203;-75
2024/03/21 02:50:53;;;;;;;10.75;6.72;;;12.80;99.90;;;;;;5046692;28;20173;-75
2024/03/21 02:53:19;;;;;;;7.17;6.40;;;12.80;99.90;;;;;;5042142;28;20181;-78
2024/03/21 02:55:45;;;;;;;8.13;6.60;;;12.70;99.90;;;;;;5037459;28;20572;-75
2024/03/21 02:58:11;;;;;;;11.87;7.23;;;12.70;99.90;;;;;;5043062;28;20193;-76
2024/03/21 03:00:37;;;;;;;10.13;7.80;;;12.80;99.90;;;;;;5051197;28;20276;-75
2024/03/21 03:03:03;;;;;;;11.87;7.77;;;12.70;99.90;;;;;;5026807;28;20321;-75
2024/03/21 03:05:28;;;;;;;11.77;8.35;;;12.80;99.90;;;;;;5041858;28;21168;-75
2024/03/21 03:07:54;;;;;;;10.20;7.90;;;12.80;99.90;;;;;;5030028;28;20694;-76
2024/03/21 03:10:20;;;;;;;19.73;9.27;;;12.90;99.90;;;;;;5054394;28;20188;-76
2024/03/21 03:12:46;;;;;;;14.17;9.83;;;12.90;99.90;;;;;;5011715;28;20182;-76
2024/03/21 03:15:12;;;;;;;12.50;9.50;;;12.90;99.90;;;;;;5044457;28;20584;-76
2024/03/21 03:17:37;;;;;;;12.90;8.60;;;13.00;99.90;;;;;;5048891;28;20200;-76
2024/03/21 03:20:03;;;;;;;12.80;9.07;;;13.00;99.90;;;;;;5015036;28;20187;-76
2024/03/21 03:22:29;;;;;;;12.50;10.10;;;13.10;99.90;;;;;;5008160;28;20273;-76
2024/03/21 03:24:55;;;;;;;11.50;9.17;;;13.10;99.90;;;;;;5046894;28;20641;-76
2024/03/21 03:27:20;;;;;;;18.63;10.10;;;13.10;99.90;;;;;;5025377;28;20648;-76
2024/03/21 03:29:47;;;;;;;14.53;9.70;;;13.20;99.90;;;;;;5025594;28;20264;-76
2024/03/21 03:32:13;;;;;;;11.93;9.65;;;13.20;99.90;;;;;;5025610;28;20238;-76
2024/03/21 03:37:23;;;;;;;12.18;9.95;;;13.20;99.90;;;;;;5041823;28;20775;-76
2024/03/21 03:39:50;;;;;;;15.30;10.70;;;13.20;99.90;;;;;;5053951;28;20223;-75
2024/03/21 03:42:16;;;;;;;14.15;10.45;;;13.20;99.90;;;;;;5051186;28;20177;-76
2024/03/21 03:44:41;;;;;;;13.87;12.00;;;13.20;99.90;;;;;;5029282;28;20648;-76
2024/03/21 03:47:07;;;;;;;18.27;11.90;;;13.20;99.90;;;;;;5021780;28;20696;-77
2024/03/21 03:49:33;;;;;;;14.97;13.37;;;13.30;99.90;;;;;;5051978;28;20169;-75
2024/03/21 03:51:59;;;;;;;16.00;13.70;;;13.30;99.90;;;;;;5037352;28;20546;-76
2024/03/21 03:54:24;;;;;;;17.37;14.00;;;13.30;99.90;;;;;;5041093;28;20177;-76
2024/03/21 03:56:50;;;;;;;16.13;14.53;;;13.40;99.90;;;;;;5020200;28;20224;-77
2024/03/21 03:59:16;;;;;;;17.50;15.70;;;13.40;99.90;;;;;;5039792;28;20182;-76
2024/03/21 04:01:42;;;;;;;17.20;14.93;;;13.40;99.90;;;;;;5042416;28;20267;-77
2024/03/21 04:04:08;;;;;;;15.60;13.90;;;13.40;99.90;;;;;;5032398;28;20728;-76
2024/03/21 04:06:33;;;;;;;27.55;18.30;;;13.50;99.90;;;;;;5032434;28;20670;-76
2024/03/21 04:08:59;;;;;;;18.90;15.40;;;13.50;99.90;;;;;;5002000;28;20189;-77
2024/03/21 04:11:27;;;;;;;22.30;17.95;;;13.50;99.90;;;;;;5006411;28;20185;-76
2024/03/21 04:13:53;;;;;;;21.80;16.87;;;13.50;99.90;;;;;;5041802;28;20242;-76
2024/03/21 04:16:19;;;;;;;23.00;19.50;;;13.60;99.90;;;;;;5043186;28;20184;-76
2024/03/21 04:18:44;;;;;;;29.30;19.80;;;13.60;99.90;;;;;;5039693;28;20208;-76
2024/03/21 04:21:13;;;;;;;24.43;19.30;;;13.60;99.90;;;;;;5015561;28;20185;-76
2024/03/21 04:23:39;;;;;;;21.65;18.02;;;13.60;99.90;;;;;;5049684;28;20232;-77
2024/03/21 04:26:05;;;;;;;21.97;18.60;;;13.60;99.90;;;;;;5008567;28;20181;-76
2024/03/21 04:28:30;;;;;;;22.73;19.30;;;13.60;99.90;;;;;;5049761;28;20570;-77
2024/03/21 04:30:56;;;;;;;25.00;19.27;;;13.60;99.90;;;;;;5032282;28;20207;-77
2024/03/21 04:33:22;;;;;;;22.67;19.40;;;13.60;99.90;;;;;;5031198;28;20707;-77
2024/03/21 04:35:49;;;;;;;24.90;20.83;;;13.60;99.90;;;;;;5027937;28;20644;-77
2024/03/21 04:38:15;;;;;;;24.30;18.88;;;13.60;99.90;;;;;;5022236;28;20259;-77
2024/03/21 04:40:41;;;;;;;21.57;19.27;;;13.60;99.90;;;;;;5012423;28;20192;-77
2024/03/21 04:43:07;;;;;;;23.70;19.53;;;13.60;99.90;;;;;;5036433;28;20688;-77
2024/03/21 04:45:32;;;;;;;22.60;19.53;;;13.60;99.90;;;;;;5036744;28;20606;-77
2024/03/21 04:47:58;;;;;;;26.70;19.77;;;13.60;99.90;;;;;;5069150;28;20208;-77
2024/03/21 04:50:24;;;;;;;25.80;20.67;;;13.60;99.90;;;;;;5056126;28;20185;-77
2024/03/21 04:52:49;;;;;;;25.30;19.30;;;13.70;99.90;;;;;;5016961;28;20184;-77
2024/03/21 04:55:15;;;;;;;23.00;19.00;;;13.70;99.90;;;;;;5038054;28;20184;-77
2024/03/21 04:57:42;;;;;;;27.97;21.43;;;13.70;99.90;;;;;;5044251;28;20205;-77
2024/03/21 05:00:13;;;;;;;26.70;21.27;;;13.70;99.90;;;;;;5049594;28;20627;-76
2024/03/21 05:02:39;;;;;;;22.25;19.33;;;13.80;99.90;;;;;;5043968;28;20583;-76
2024/03/21 05:05:05;;;;;;;23.02;20.48;;;13.80;99.90;;;;;;5034795;28;20177;-76
2024/03/21 05:07:31;;;;;;;21.73;19.27;;;13.80;99.90;;;;;;5015251;28;20573;-77
2024/03/21 05:09:57;;;;;;;26.27;22.00;;;13.90;99.90;;;;;;5047078;28;20634;-77
2024/03/21 05:12:24;;;;;;;24.83;20.87;;;13.90;99.90;;;;;;5052198;28;20605;-76
2024/03/21 05:14:49;;;;;;;26.60;20.90;;;13.90;99.90;;;;;;5029606;28;20583;-77
2024/03/21 05:17:17;;;;;;;22.77;20.37;;;13.90;99.90;;;;;;5033121;28;20624;-76
2024/03/21 05:19:43;;;;;;;26.63;21.10;;;13.90;99.90;;;;;;5015847;28;20181;-77
2024/03/21 05:22:09;;;;;;;26.40;22.37;;;13.90;99.90;;;;;;5033408;28;20942;-76
2024/03/21 05:24:35;;;;;;;27.40;19.70;;;13.90;99.90;;;;;;5043704;28;20598;-77
2024/03/21 05:27:02;;;;;;;23.03;19.50;;;13.90;99.90;;;;;;5051455;28;20711;-77
2024/03/21 05:29:29;;;;;;;20.90;18.60;;;14.00;99.90;;;;;;5068359;28;20513;-76
2024/03/21 05:31:55;;;;;;;25.90;18.90;;;14.00;99.90;;;;;;5035233;28;20577;-76
2024/03/21 05:34:21;;;;;;;28.77;20.83;;;14.00;99.90;;;;;;5031558;28;20636;-76
2024/03/21 05:36:47;;;;;;;26.17;21.47;;;14.00;99.90;;;;;;5033549;28;20671;-77
2024/03/21 05:39:12;;;;;;;22.70;18.80;;;14.00;99.90;;;;;;5033325;28;20223;-77
2024/03/21 05:41:38;;;;;;;21.80;18.83;;;14.00;99.90;;;;;;5035165;28;20598;-76
2024/03/21 05:44:05;;;;;;;26.03;19.00;;;13.90;99.90;;;;;;5049172;28;20618;-77
2024/03/21 05:46:30;;;;;;;21.77;19.43;;;13.90;99.90;;;;;;5033856;28;20225;-77
2024/03/21 05:48:57;;;;;;;24.70;20.53;;;13.90;99.90;;;;;;5033017;28;20605;-77
2024/03/21 05:51:23;;;;;;;24.50;19.30;;;13.90;99.90;;;;;;5033138;28;20542;-77
2024/03/21 05:53:48;;;;;;;27.13;21.27;;;13.80;99.90;;;;;;5032270;28;20599;-77
2024/03/21 05:56:17;;;;;;;23.67;18.63;;;13.80;99.90;;;;;;5031861;28;20576;-77
2024/03/21 05:58:43;;;;;;;24.77;20.17;;;13.80;99.90;;;;;;5031623;28;20643;-77
2024/03/21 06:03:41;;;;;;;24.52;20.35;;;13.70;99.90;;;;;;5034273;28;20187;-77
2024/03/21 06:06:06;;;;;;;24.13;20.10;;;13.60;99.90;;;;;;5052813;28;20255;-77
2024/03/21 06:08:32;;;;;;;26.40;20.17;;;13.60;99.90;;;;;;5035674;28;20224;-77
2024/03/21 06:10:58;;;;;;;23.27;19.00;;;13.60;99.90;;;;;;5040949;28;20177;-77
2024/03/21 06:13:24;;;;;;;22.70;19.63;;;13.50;99.90;;;;;;5050032;28;20586;-77
2024/03/21 06:15:50;;;;;;;25.13;19.47;;;13.50;99.90;;;;;;5034479;28;20181;-76
2024/03/21 06:18:15;;;;;;;23.30;19.40;;;13.60;99.90;;;;;;5060345;28;20228;-76
2024/03/21 06:20:45;;;;;;;34.83;20.97;;;13.50;99.90;;;;;;5039916;28;20588;-77
2024/03/21 06:23:11;;;;;;;24.33;18.75;;;13.50;99.90;;;;;;5030208;28;20174;-77
2024/03/21 06:25:38;;;;;;;27.48;21.42;;;13.50;99.90;;;;;;5032398;28;20184;-77
2024/03/21 06:28:06;;;;;;;27.73;22.30;;;13.50;99.90;;;;;;5032505;28;20212;-77
2024/03/21 06:30:33;;;;;;;26.50;21.50;;;13.60;99.90;;;;;;5034188;28;20188;-77
2024/03/21 06:32:59;;;;;;;23.07;18.27;;;13.60;99.90;;;;;;5032547;28;20607;-77
2024/03/21 06:35:25;;;;;;;22.60;19.77;;;13.60;99.90;;;;;;5031816;28;20620;-76
2024/03/21 06:37:51;;;;;;;19.73;17.60;;;13.70;99.90;;;;;;5032215;28;21181;-76
2024/03/21 06:40:18;;;;;;;21.40;17.30;;;13.70;99.90;;;;;;5048342;28;20601;-77
2024/03/21 06:42:43;;;;;;;26.27;19.33;;;13.80;99.90;;;;;;5051910;28;20649;-76
2024/03/21 06:45:09;;;;;;;24.90;18.40;;;13.80;99.90;;;;;;5036031;28;20189;-76
2024/03/21 06:47:39;;;;;;;19.37;16.10;;;13.90;99.90;;;;;;5063040;28;20204;-77
2024/03/21 06:50:10;;;;;;;19.63;17.53;;;13.90;99.90;;;;;;5060307;28;20922;-79
2024/03/21 06:52:36;;;;;;;21.60;16.47;;;14.00;99.90;;;;;;5027947;28;20986;-78
2024/03/21 06:55:01;;;;;;;21.23;17.50;;;14.00;99.90;;;;;;5051718;28;20592;-77
2024/03/21 06:57:27;;;;;;;18.53;16.37;;;14.10;99.90;;;;;;5051602;28;20192;-79
2024/03/21 06:59:53;;;;;;;19.83;15.90;;;14.10;99.90;;;;;;5030927;28;20563;-79
2024/03/21 07:02:18;;;;;;;20.30;16.07;;;14.20;99.90;;;;;;5029883;28;20178;-79
2024/03/21 07:04:45;;;;;;;22.93;16.50;;;14.20;99.90;;;;;;5033054;28;20217;-80
2024/03/21 07:07:10;;;;;;;21.38;15.32;;;14.30;99.90;;;;;;5030376;28;20209;-80
2024/03/21 07:09:36;;;;;;;20.90;17.47;;;14.40;99.90;;;;;;5035935;28;20181;-80
2024/03/21 07:12:03;;;;;;;20.60;16.90;;;14.40;99.90;;;;;;5051727;28;20177;-80
2024/03/21 07:14:34;;;;;;;19.30;15.53;;;14.50;99.90;;;;;;5050949;28;20969;-80
2024/03/21 07:17:01;;;;;;;17.57;15.77;;;14.70;99.90;;;;;;5046672;28;21114;-80
2024/03/21 07:19:33;;;;;;;19.80;17.43;;;14.80;99.90;;;;;;4997661;28;20616;-80
2024/03/21 07:22:01;;;;;;;19.70;15.80;;;14.90;99.90;;;;;;5014347;28;21185;-78
2024/03/21 07:24:28;;;;;;;21.43;17.60;;;15.00;99.90;;;;;;5047690;28;20595;-78
2024/03/21 07:26:54;;;;;;;15.60;13.97;;;15.10;99.90;;;;;;5047316;28;20646;-78
2024/03/21 07:29:19;;;;;;;18.03;15.43;;;15.20;99.90;;;;;;5055578;23;20658;-78
2024/03/21 07:31:45;;;;;;;18.87;15.53;;;15.30;99.90;;;;;;5081482;28;20598;-78
2024/03/21 07:34:12;;;;;;;22.53;18.63;;;15.30;99.90;;;;;;5080648;28;20169;-78
2024/03/21 07:36:37;;;;;;;22.27;16.43;;;15.40;99.90;;;;;;5080910;28;20222;-78
2024/03/21 07:39:04;;;;;;;19.40;17.27;;;15.40;99.90;;;;;;5077728;28;20562;-78
2024/03/21 07:41:30;;;;;;;16.53;14.83;;;15.40;99.90;;;;;;5078165;28;20528;-78
2024/03/21 07:43:57;;;;;;;20.03;17.67;;;15.50;99.90;;;;;;5050651;28;20627;-78
2024/03/21 07:46:23;;;;;;;17.00;15.20;;;15.50;99.90;;;;;;5051773;28;20623;-79
2024/03/21 07:48:49;;;;;;;20.77;16.97;;;15.50;99.90;;;;;;5063473;28;20646;-77
2024/03/21 07:51:15;;;;;;;20.63;18.17;;;15.50;99.90;;;;;;5070716;28;21087;-77
2024/03/21 07:53:41;;;;;;;22.40;19.60;;;15.50;99.90;;;;;;5069597;28;20253;-78
2024/03/21 07:56:06;;;;;;;19.80;17.30;;;15.50;99.90;;;;;;5070017;28;20173;-78
2024/03/21 07:58:33;;;;;;;21.30;18.17;;;15.40;99.90;;;;;;5070364;28;20655;-79
2024/03/21 08:00:59;;;;;;;22.83;18.63;;;15.30;99.90;;;;;;5069943;28;20250;-77
2024/03/21 08:03:24;;;;;;;20.53;16.77;;;15.30;99.90;;;;;;5070367;28;21278;-78
2024/03/21 08:05:51;;;;;;;22.77;17.70;;;15.20;99.90;;;;;;5072609;28;20187;-78
2024/03/21 08:08:17;;;;;;;20.97;18.53;;;15.20;99.90;;;;;;5055929;28;20294;-77
2024/03/21 08:10:43;;;;;;;19.00;16.80;;;15.20;99.90;;;;;;5070617;28;20750;-78
2024/03/21 08:13:09;;;;;;;24.23;19.77;;;15.10;99.90;;;;;;5053118;28;20179;-78
2024/03/21 08:15:34;;;;;;;23.70;19.20;;;15.10;99.90;;;;;;5070407;28;20575;-78
2024/03/21 08:18:00;;;;;;;24.97;22.33;;;15.10;99.90;;;;;;5071976;28;20259;-78
2024/03/21 08:20:26;;;;;;;24.23;21.13;;;15.00;99.90;;;;;;5069824;28;20207;-79
2024/03/21 08:22:52;;;;;;;21.60;19.17;;;15.00;99.90;;;;;;5074481;28;20574;-78
2024/03/21 08:25:18;;;;;;;21.87;18.10;;;14.90;99.90;;;;;;5074187;28;20168;-78
2024/03/21 08:27:43;;;;;;;21.13;18.00;;;14.90;99.90;;;;;;5072945;28;20236;-78
2024/03/21 08:30:10;;;;;;;23.37;19.30;;;14.90;99.90;;;;;;5072769;28;20192;-79
2024/03/21 08:32:35;;;;;;;21.20;18.33;;;14.90;99.90;;;;;;5071196;28;20165;-79
2024/03/21 08:35:01;;;;;;;25.03;19.97;;;14.90;99.90;;;;;;5069611;28;20792;-79
2024/03/21 08:37:28;;;;;;;20.60;18.40;;;14.80;99.90;;;;;;5054492;28;20585;-79
2024/03/21 08:39:57;;;;;;;19.83;17.40;;;14.80;99.90;;;;;;5072517;28;20980;-79
2024/03/21 08:42:22;;;;;;;21.27;19.03;;;14.80;99.90;;;;;;5077802;28;20673;-79
2024/03/21 08:44:48;;;;;;;20.57;17.30;;;14.80;99.90;;;;;;5052854;28;21170;-80
2024/03/21 08:47:14;;;;;;;21.40;19.17;;;14.80;99.90;;;;;;5070598;28;20231;-79
2024/03/21 08:49:40;;;;;;;22.47;19.00;;;14.80;99.90;;;;;;5069291;28;20199;-79
2024/03/21 08:52:06;;;;;;;25.07;18.43;;;14.80;99.90;;;;;;5069845;28;20571;-79
2024/03/21 08:54:32;;;;;;;20.53;17.60;;;14.80;99.90;;;;;;5070912;28;20235;-79
2024/03/21 08:56:57;;;;;;;23.60;19.27;;;14.80;99.90;;;;;;5069831;28;20211;-79
2024/03/21 08:59:23;;;;;;;21.67;16.67;;;14.80;99.90;;;;;;5070534;28;20697;-79
2024/03/21 09:01:49;;;;;;;19.07;15.83;;;14.90;99.90;;;;;;5069324;28;20188;-79
2024/03/21 09:04:19;;;;;;;16.30;14.50;;;14.90;99.90;;;;;;5072831;28;20153;-78
2024/03/21 09:06:45;;;;;;;17.67;13.90;;;14.90;99.90;;;;;;5070226;28;20295;-79
2024/03/21 09:09:10;;;;;;;17.03;14.27;;;14.90;99.90;;;;;;5069023;28;20718;-78
2024/03/21 09:11:36;;;;;;;18.57;15.43;;;14.90;99.90;;;;;;5070461;28;20294;-78
2024/03/21 09:14:02;;;;;;;15.00;12.60;;;14.90;99.90;;;;;;5069279;28;20198;-78
2024/03/21 09:16:29;;;;;;;15.73;13.77;;;15.00;99.90;;;;;;5068736;28;20699;-78
2024/03/21 09:18:54;;;;;;;15.50;13.83;;;15.00;99.90;;;;;;5070573;28;20713;-78
2024/03/21 09:21:20;;;;;;;14.57;12.63;;;15.10;99.90;;;;;;5070752;28;20658;-78
2024/03/21 09:23:46;;;;;;;14.93;11.73;;;15.10;99.90;;;;;;5073533;28;20539;-78
2024/03/21 09:26:12;;;;;;;18.43;12.93;;;15.30;99.90;;;;;;5057838;28;20187;-78
2024/03/21 09:28:39;;;;;;;13.20;11.47;;;15.30;99.90;;;;;;5074492;28;20184;-78
2024/03/21 09:31:05;;;;;;;12.63;10.97;;;15.40;99.90;;;;;;5060550;28;20201;-78
2024/03/21 09:33:32;;;;;;;11.53;10.27;;;15.50;99.90;;;;;;5054966;28;20603;-79
2024/03/21 09:35:59;;;;;;;10.87;9.60;;;15.50;99.90;;;;;;5058517;28;20583;-79
2024/03/21 09:38:26;;;;;;;11.70;9.10;;;15.60;99.90;;;;;;5076723;28;20587;-79
2024/03/21 09:40:51;;;;;;;11.20;10.10;;;15.70;99.90;;;;;;5073848;28;20661;-79
2024/03/21 09:43:17;;;;;;;12.30;11.00;;;15.80;99.90;;;;;;5058729;28;20579;-78
2024/03/21 09:45:49;;;;;;;13.63;10.97;;;15.90;99.90;;;;;;5072667;28;20169;-78
2024/03/21 09:48:15;;;;;;;9.80;8.53;;;16.00;99.90;;;;;;5072539;28;20214;-78
2024/03/21 09:50:42;;;;;;;11.40;9.53;;;16.10;99.90;;;;;;5073838;28;20605;-78
2024/03/21 09:53:13;;;;;;;10.90;9.10;;;16.10;99.90;;;;;;5072872;28;20677;-79
2024/03/21 09:55:46;;;;;;;11.33;9.17;;;16.20;99.90;;;;;;5072703;28;20570;-79
2024/03/21 09:58:14;;;;;;;9.73;8.70;;;16.30;99.90;;;;;;5072687;28;20575;-79
2024/03/21 10:00:43;;;;;;;11.67;9.80;;;16.40;99.90;;;;;;5072504;28;20705;-77
2024/03/21 10:03:13;;;;;;;11.00;9.50;;;16.50;99.90;;;;;;5073863;28;20570;-79
2024/03/21 10:05:45;;;;;;;10.27;9.20;;;16.60;99.90;;;;;;5073289;28;20698;-78
2024/03/21 10:08:12;;;;;;;9.27;7.90;;;16.70;99.90;;;;;;5054637;28;20630;-78
2024/03/21 10:10:38;;;;;;;9.90;7.20;;;16.80;99.90;;;;;;5071169;28;20676;-78
2024/03/21 10:13:04;;;;;;;8.83;7.93;;;16.90;99.90;;;;;;5071992;28;20610;-78
2024/03/21 10:15:32;;;;;;;9.63;7.70;;;17.00;99.90;;;;;;5070966;28;21159;-78
2024/03/21 10:17:59;;;;;;;8.70;7.80;;;17.20;99.90;;;;;;5054012;28;20180;-78
2024/03/21 10:20:25;;;;;;;8.27;7.20;;;17.30;99.90;;;;;;5070953;28;20625;-78
2024/03/21 10:22:52;;;;;;;9.90;8.50;;;17.30;99.90;;;;;;5071954;28;20590;-78
2024/03/21 10:25:19;;;;;;;9.20;8.20;;;17.40;99.90;;;;;;5070368;28;20191;-78
2024/03/21 10:27:48;;;;;;;10.10;8.03;;;17.40;99.90;;;;;;5071780;28;20637;-78
2024/03/21 10:30:21;;;;;;;8.80;7.90;;;17.70;99.90;;;;;;5070424;28;20642;-78
2024/03/21 10:32:47;;;;;;;6.53;5.83;;;18.00;99.90;;;;;;5054211;28;20579;-77
2024/03/21 10:35:18;;;;;;;7.17;6.43;;;18.40;99.90;;;;;;5069429;28;20909;-78
2024/03/21 10:37:44;;;;;;;7.53;6.70;;;18.90;99.90;;;;;;5070427;28;21254;-77
2024/03/21 10:40:14;;;;;;;6.67;5.97;;;19.30;99.90;;;;;;5071717;28;20614;-77
2024/03/21 10:42:51;;;;;;;7.00;5.57;;;19.50;99.90;;;;;;5034414;28;20594;-78
2024/03/21 10:45:17;;;;;;;7.00;6.20;;;19.70;99.90;;;;;;5066055;28;20601;-77
2024/03/21 10:47:50;;;;;;;9.63;7.23;;;19.70;99.90;;;;;;5069661;28;20634;-77
2024/03/21 10:50:24;;;;;;;9.53;8.40;;;19.70;99.90;;;;;;5071714;28;20613;-77
2024/03/21 10:52:51;;;;;;;8.87;7.83;;;19.70;99.90;;;;;;5070546;28;20594;-77
2024/03/21 10:55:18;;;;;;;7.40;6.70;;;19.70;99.90;;;;;;5070122;28;20591;-77
2024/03/21 10:57:59;;;;;;;7.53;6.43;;;19.60;99.90;;;;;;5073651;28;20920;-77
2024/03/21 11:00:25;;;;;;;6.40;5.80;;;19.50;99.90;;;;;;5069933;28;21175;-77
2024/03/21 11:02:59;;;;;;;6.33;5.60;;;19.50;99.90;;;;;;5071392;28;20668;-77
2024/03/21 11:05:27;;;;;;;5.67;5.10;;;19.70;99.90;;;;;;5052534;28;20575;-76
2024/03/21 11:07:53;;;;;;;7.33;6.27;;;19.90;99.90;;;;;;5071467;28;20625;-76
2024/03/21 11:10:21;;;;;;;6.00;5.40;;;20.10;99.90;;;;;;5069901;28;21202;-78
2024/03/21 11:12:48;;;;;;;4.70;4.00;;;20.20;99.90;;;;;;5069638;28;20621;-77
2024/03/21 11:15:14;;;;;;;4.43;4.03;;;20.30;99.90;;;;;;5052933;28;20685;-77
2024/03/21 11:17:40;;;;;;;6.57;5.03;;;20.50;99.90;;;;;;5070103;28;20587;-77
2024/03/21 11:20:08;;;;;;;4.80;4.40;;;20.50;99.90;;;;;;5070989;28;20963;-77
2024/03/21 11:22:35;;;;;;;4.27;3.83;;;20.40;99.90;;;;;;5036414;28;20198;-77
2024/03/21 11:25:02;;;;;;;4.07;3.57;;;20.30;99.90;;;;;;5069259;28;20614;-77
2024/03/21 11:27:29;;;;;;;3.43;3.13;;;20.10;99.90;;;;;;5052976;28;20716;-78
2024/03/21 11:29:55;;;;;;;4.30;3.73;;;19.90;99.90;;;;;;5069705;28;20739;-77
2024/03/21 11:32:25;;;;;;;3.47;3.17;;;19.80;99.90;;;;;;5069532;28;20615;-77
2024/03/21 11:34:51;;;;;;;4.57;4.17;;;19.60;99.90;;;;;;5069304;28;20589;-76
2024/03/21 11:37:17;;;;;;;5.30;3.63;;;19.50;99.90;;;;;;5069769;28;20677;-77
2024/03/21 11:39:46;;;;;;;3.67;2.87;;;19.50;99.90;;;;;;5068702;28;20725;-76
2024/03/21 11:42:13;;;;;;;3.10;2.47;;;19.50;99.90;;;;;;5069004;28;21158;-76
2024/03/21 11:44:42;;;;;;;2.53;2.10;;;19.50;99.90;;;;;;5068997;28;20681;-76
2024/03/21 11:47:12;;;;;;;5.83;2.93;;;19.50;99.90;;;;;;5069077;28;20679;-77
2024/03/21 11:49:51;;;;;;;4.20;3.33;;;19.60;99.90;;;;;;5069175;28;20626;-77
2024/03/21 11:52:18;;;;;;;4.30;3.90;;;19.70;99.90;;;;;;5051380;28;20590;-77
2024/03/21 11:54:44;;;;;;;5.17;3.90;;;19.70;99.90;;;;;;5050320;28;20597;-77
2024/03/21 11:57:12;;;;;;;4.00;3.23;;;19.70;99.90;;;;;;5067032;28;20622;-77
2024/03/21 11:59:41;;;;;;;3.40;3.10;;;19.70;99.90;;;;;;5050125;28;20630;-77
2024/03/21 12:02:17;;;;;;;4.23;3.83;;;19.80;99.90;;;;;;5061689;28;20591;-77
2024/03/21 12:04:44;;;;;;;4.73;3.37;;;19.90;99.90;;;;;;5067791;28;20583;-77
2024/03/21 12:07:14;;;;;;;3.97;3.10;;;20.00;99.90;;;;;;5070248;28;20991;-77
2024/03/21 12:09:40;;;;;;;5.00;3.37;;;20.10;99.90;;;;;;5070069;28;21462;-77
2024/03/21 12:12:11;;;;;;;3.53;3.20;;;20.10;99.90;;;;;;5070200;28;20591;-77
2024/03/21 12:14:37;;;;;;;3.17;2.70;;;20.10;99.90;;;;;;5068616;28;20188;-77
2024/03/21 12:17:06;;;;;;;7.70;4.27;;;20.30;99.90;;;;;;5068935;28;20915;-76
2024/03/21 12:19:32;;;;;;;3.47;3.17;;;20.30;99.90;;;;;;5068768;28;20200;-77
2024/03/21 12:21:58;;;;;;;4.93;4.37;;;20.40;99.90;;;;;;5035072;28;21237;-78
2024/03/21 12:24:23;;;;;;;5.30;4.90;;;20.40;99.90;;;;;;5051800;28;20693;-77
2024/03/21 12:26:49;;;;;;;4.50;4.10;;;20.40;99.90;;;;;;5068501;28;20250;-77
2024/03/21 12:29:15;;;;;;;5.20;4.70;;;20.40;99.90;;;;;;5068438;28;20602;-77
2024/03/21 12:31:40;;;;;;;6.00;4.63;;;20.30;99.90;;;;;;5051990;28;20175;-77
2024/03/21 12:34:06;;;;;;;4.37;3.57;;;20.10;99.90;;;;;;5069553;28;20205;-77
2024/03/21 12:36:34;;;;;;;6.07;5.57;;;20.00;99.90;;;;;;5069061;28;20184;-77
2024/03/21 12:39:00;;;;;;;5.27;4.87;;;19.90;99.90;;;;;;5069860;28;20262;-78
2024/03/21 12:41:27;;;;;;;5.10;4.70;;;19.80;99.90;;;;;;5069744;28;20599;-77